createdAt,value
2018-09-05T00:00:11.512Z,19.96
2018-09-05T00:02:40.262Z,19.99
2018-09-05T00:05:09.753Z,19.95
2018-09-05T00:07:38.458Z,19.92
2018-09-05T00:10:07.723Z,19.89
2018-09-05T00:12:36.402Z,19.80
2018-09-05T00:15:05.869Z,19.83
2018-09-05T00:17:34.619Z,19.81
2018-09-05T00:20:03.267Z,19.80
2018-09-05T00:22:32.056Z,19.78
2018-09-05T00:25:02.035Z,19.75
2018-09-05T00:27:30.664Z,19.75
2018-09-05T00:30:00.768Z,19.81
2018-09-05T00:32:29.301Z,19.80
2018-09-05T00:34:58.045Z,19.85
2018-09-05T00:37:26.659Z,19.76
2018-09-05T00:39:55.470Z,19.75
2018-09-05T00:42:24.001Z,19.68
2018-09-05T00:44:53.395Z,19.62
2018-09-05T00:47:22.140Z,19.59
2018-09-05T00:49:52.084Z,19.56
2018-09-05T00:52:20.715Z,19.54
2018-09-05T00:54:49.395Z,19.53
2018-09-05T00:57:17.912Z,19.45
2018-09-05T00:59:46.460Z,19.43
2018-09-05T01:02:15.571Z,19.40
2018-09-05T01:04:44.332Z,19.39
2018-09-05T01:07:24.375Z,19.33
2018-09-05T01:09:53.696Z,19.30
2018-09-05T01:12:23.286Z,19.25
2018-09-05T01:14:53.044Z,19.27
2018-09-05T01:17:23.760Z,19.24
2018-09-05T01:19:53.710Z,19.26
2018-09-05T01:22:23.137Z,19.23
2018-09-05T01:24:52.019Z,19.21
2018-09-05T01:27:21.291Z,19.21
2018-09-05T01:29:50.648Z,19.18
2018-09-05T01:32:19.537Z,19.12
2018-09-05T01:34:48.429Z,19.06
2018-09-05T01:37:17.357Z,19.02
2018-09-05T01:39:46.195Z,18.97
2018-09-05T01:42:14.872Z,18.95
2018-09-05T01:44:45.280Z,18.89
2018-09-05T01:47:15.009Z,18.86
2018-09-05T01:49:43.632Z,18.83
2018-09-05T01:52:12.765Z,18.81
2018-09-05T01:54:41.392Z,18.78
2018-09-05T01:57:09.980Z,18.77
2018-09-05T01:59:39.055Z,18.70
2018-09-05T02:02:07.864Z,18.69
2018-09-05T02:04:36.692Z,18.66
2018-09-05T02:07:05.891Z,18.65
2018-09-05T02:09:34.617Z,18.63
2018-09-05T02:12:03.359Z,18.62
2018-09-05T02:14:32.113Z,18.60
2018-09-05T02:17:00.738Z,18.56
2018-09-05T02:19:29.495Z,18.53
2018-09-05T02:21:58.320Z,18.51
2018-09-05T02:24:28.096Z,18.46
2018-09-05T02:26:57.972Z,18.40
2018-09-05T02:29:29.964Z,18.37
2018-09-05T02:31:58.859Z,18.36
2018-09-05T02:34:27.528Z,18.28
2018-09-05T02:36:57.347Z,18.25
2018-09-05T02:39:25.984Z,18.29
2018-09-05T02:41:55.122Z,18.22
2018-09-05T02:44:24.500Z,18.16
2018-09-05T02:46:54.029Z,18.11
2018-09-05T02:49:23.576Z,18.11
2018-09-05T02:51:53.030Z,18.02
2018-09-05T02:54:22.474Z,17.99
2018-09-05T02:56:51.990Z,18.00
2018-09-05T02:59:21.210Z,17.99
2018-09-05T03:01:49.781Z,18.02
2018-09-05T03:04:18.385Z,17.94
2018-09-05T03:06:47.912Z,17.88
2018-09-05T03:09:16.820Z,17.79
2018-09-05T03:11:45.408Z,17.72
2018-09-05T03:14:14.628Z,17.69
2018-09-05T03:16:44.282Z,17.67
2018-09-05T03:19:12.826Z,17.64
2018-09-05T03:21:41.398Z,17.63
2018-09-05T03:24:10.675Z,17.62
2018-09-05T03:26:39.913Z,17.57
2018-09-05T03:29:08.516Z,17.52
2018-09-05T03:31:37.719Z,17.52
2018-09-05T03:34:06.415Z,17.49
2018-09-05T03:36:35.046Z,17.44
2018-09-05T03:39:06.184Z,17.43
2018-09-05T03:41:34.714Z,17.41
2018-09-05T03:44:03.616Z,17.39
2018-09-05T03:46:32.456Z,17.38
2018-09-05T03:49:01.320Z,17.37
2018-09-05T03:51:30.127Z,17.40
2018-09-05T03:54:05.400Z,17.34
2018-09-05T03:56:34.135Z,17.35
2018-09-05T03:59:03.645Z,17.31
2018-09-05T04:01:32.658Z,17.31
2018-09-05T04:04:01.992Z,17.27
2018-09-05T04:06:30.761Z,17.24
2018-09-05T04:09:00.300Z,17.23
2018-09-05T04:11:30.165Z,17.22
2018-09-05T04:14:01.099Z,17.27
2018-09-05T04:16:29.956Z,17.25
2018-09-05T04:18:58.705Z,17.26
2018-09-05T04:21:27.465Z,17.26
2018-09-05T04:23:57.068Z,17.27
2018-09-05T04:26:27.203Z,17.28
2018-09-05T04:28:56.445Z,17.27
2018-09-05T04:31:26.722Z,17.28
2018-09-05T04:33:55.394Z,17.23
2018-09-05T04:36:24.248Z,17.22
2018-09-05T04:38:54.499Z,17.21
2018-09-05T04:41:23.357Z,17.21
2018-09-05T04:43:52.663Z,17.18
2018-09-05T04:46:21.519Z,17.12
2018-09-05T04:48:50.335Z,17.08
2018-09-05T04:51:19.426Z,17.03
2018-09-05T04:53:48.138Z,17.01
2018-09-05T04:56:17.708Z,17.01
2018-09-05T04:58:49.591Z,16.95
2018-09-05T05:01:18.684Z,16.99
2018-09-05T05:03:48.307Z,16.94
2018-09-05T05:06:17.702Z,16.88
2018-09-05T05:08:46.608Z,16.85
2018-09-05T05:11:16.211Z,16.83
2018-09-05T05:13:45.202Z,16.80
2018-09-05T05:16:15.500Z,16.81
2018-09-05T05:18:44.352Z,16.84
2018-09-05T05:21:13.672Z,16.88
2018-09-05T05:23:46.181Z,16.91
2018-09-05T05:26:15.035Z,16.92
2018-09-05T05:28:43.720Z,16.89
2018-09-05T05:31:12.286Z,16.92
2018-09-05T05:33:41.546Z,16.96
2018-09-05T05:36:10.524Z,17.00
2018-09-05T05:38:39.767Z,17.00
2018-09-05T05:41:08.726Z,17.06
2018-09-05T05:43:38.228Z,17.07
2018-09-05T05:46:09.395Z,17.08
2018-09-05T05:48:39.095Z,17.10
2018-09-05T05:51:08.605Z,17.14
2018-09-05T05:53:37.569Z,17.14
2018-09-05T05:56:07.589Z,17.22
2018-09-05T05:58:37.141Z,17.24
2018-09-05T06:01:06.031Z,17.29
2018-09-05T06:03:35.097Z,17.29
2018-09-05T06:06:04.025Z,17.34
2018-09-05T06:08:33.518Z,17.37
2018-09-05T06:11:03.228Z,17.38
2018-09-05T06:13:32.411Z,17.39
2018-09-05T06:16:02.310Z,17.44
2018-09-05T06:18:31.292Z,17.47
2018-09-05T06:21:01.018Z,17.49
2018-09-05T06:23:30.334Z,17.53
2018-09-05T06:25:59.869Z,17.52
2018-09-05T06:28:29.517Z,17.55
2018-09-05T06:31:00.424Z,17.56
2018-09-05T06:33:30.468Z,17.66
2018-09-05T06:35:59.371Z,17.76
2018-09-05T06:38:28.320Z,17.82
2018-09-05T06:40:57.273Z,17.83
2018-09-05T06:43:26.338Z,17.89
2018-09-05T06:45:56.002Z,17.95
2018-09-05T06:48:25.250Z,18.02
2018-09-05T06:51:11.583Z,17.99
2018-09-05T06:53:40.345Z,18.06
2018-09-05T06:56:09.535Z,18.03
2018-09-05T06:58:40.607Z,18.08
2018-09-05T07:01:09.228Z,18.19
2018-09-05T07:03:37.961Z,18.26
2018-09-05T07:06:06.586Z,18.28
2018-09-05T07:08:36.239Z,18.34
2018-09-05T07:11:04.954Z,18.49
2018-09-05T07:13:34.544Z,18.61
2018-09-05T07:16:04.283Z,18.71
2018-09-05T07:18:34.124Z,18.71
2018-09-05T07:21:06.400Z,18.80
2018-09-05T07:23:34.597Z,18.84
2018-09-05T07:26:04.720Z,18.93
2018-09-05T07:28:33.763Z,18.76
2018-09-05T07:31:04.058Z,18.72
2018-09-05T07:33:33.564Z,18.78
2018-09-05T07:36:02.979Z,18.81
2018-09-05T07:38:32.041Z,18.82
2018-09-05T07:41:00.986Z,18.82
2018-09-05T07:43:31.197Z,18.91
2018-09-05T07:46:00.025Z,18.91
2018-09-05T07:48:28.838Z,19.00
2018-09-05T07:50:58.143Z,19.08
2018-09-05T07:53:27.710Z,19.08
2018-09-05T07:55:56.395Z,19.12
2018-09-05T07:58:26.178Z,19.15
2018-09-05T08:00:55.236Z,19.05
2018-09-05T08:03:23.974Z,18.86
2018-09-05T08:05:54.959Z,18.99
2018-09-05T08:08:24.279Z,19.04
2018-09-05T08:10:54.100Z,19.15
2018-09-05T08:13:22.968Z,19.23
2018-09-05T08:15:51.574Z,19.28
2018-09-05T08:18:20.276Z,19.34
2018-09-05T08:20:49.052Z,19.43
2018-09-05T08:23:17.652Z,19.52
2018-09-05T08:25:46.330Z,19.59
2018-09-05T08:28:15.002Z,19.63
2018-09-05T08:30:54.230Z,19.64
2018-09-05T08:33:22.956Z,19.63
2018-09-05T08:35:52.352Z,19.63
2018-09-05T08:38:20.624Z,19.64
2018-09-05T08:40:50.876Z,19.67
2018-09-05T08:43:19.627Z,19.71
2018-09-05T08:45:49.261Z,19.70
2018-09-05T08:48:17.803Z,19.76
2018-09-05T08:50:47.236Z,19.76
2018-09-05T08:53:15.935Z,19.80
2018-09-05T08:55:45.202Z,19.86
2018-09-05T08:58:13.790Z,19.91
2018-09-05T09:00:43.807Z,19.97
2018-09-05T09:03:12.461Z,20.02
2018-09-05T09:05:41.095Z,20.03
2018-09-05T09:08:09.902Z,20.05
2018-09-05T09:10:39.564Z,20.14
2018-09-05T09:13:08.436Z,20.23
2018-09-05T09:15:37.844Z,20.30
2018-09-05T09:18:07.035Z,20.36
2018-09-05T09:20:35.700Z,20.41
2018-09-05T09:23:05.735Z,20.48
2018-09-05T09:25:36.851Z,20.51
2018-09-05T09:28:06.193Z,20.50
2018-09-05T09:30:35.940Z,20.57
2018-09-05T09:33:05.121Z,20.63
2018-09-05T09:35:35.121Z,20.65
2018-09-05T09:38:04.796Z,20.73
2018-09-05T09:40:34.134Z,20.81
2018-09-05T09:43:03.527Z,20.89
2018-09-05T09:45:32.229Z,20.91
2018-09-05T09:48:01.239Z,20.96
2018-09-05T09:50:30.638Z,21.05
2018-09-05T09:52:59.559Z,21.07
2018-09-05T09:55:28.221Z,21.17
2018-09-05T09:57:57.096Z,21.27
2018-09-05T10:00:31.449Z,21.25
2018-09-05T10:03:05.504Z,21.23
2018-09-05T10:05:40.526Z,21.21
2018-09-05T10:08:14.299Z,21.27
2018-09-05T10:10:48.372Z,21.33
2018-09-05T10:13:22.038Z,21.48
2018-09-05T10:15:55.851Z,21.66
2018-09-05T10:18:26.705Z,21.68
2018-09-05T10:20:56.067Z,21.81
2018-09-05T10:23:24.992Z,21.83
2018-09-05T10:25:53.752Z,21.95
2018-09-05T10:28:22.512Z,22.00
2018-09-05T10:30:52.933Z,22.15
2018-09-05T10:33:21.470Z,22.23
2018-09-05T10:35:50.621Z,22.26
2018-09-05T10:38:19.253Z,22.33
2018-09-05T10:40:48.027Z,22.37
2018-09-05T10:43:16.662Z,22.43
2018-09-05T10:45:46.364Z,22.47
2018-09-05T10:48:15.331Z,22.48
2018-09-05T10:50:44.186Z,22.43
2018-09-05T10:53:13.071Z,22.52
2018-09-05T10:55:42.926Z,22.61
2018-09-05T10:58:12.423Z,22.67
2018-09-05T11:00:41.318Z,22.69
2018-09-05T11:03:10.396Z,22.86
2018-09-05T11:05:39.006Z,22.99
2018-09-05T11:08:08.158Z,23.04
2018-09-05T11:10:37.079Z,23.17
2018-09-05T11:13:05.833Z,23.26
2018-09-05T11:15:34.460Z,23.30
2018-09-05T11:18:03.138Z,23.40
2018-09-05T11:20:32.059Z,23.45
2018-09-05T11:23:00.763Z,23.42
2018-09-05T11:25:29.805Z,23.52
2018-09-05T11:27:59.407Z,23.62
2018-09-05T11:30:28.616Z,23.74
2018-09-05T11:32:57.476Z,23.82
2018-09-05T11:35:27.103Z,23.83
2018-09-05T11:37:55.998Z,23.96
2018-09-05T11:40:24.839Z,24.03
2018-09-05T11:42:54.366Z,24.08
2018-09-05T11:45:23.099Z,24.17
2018-09-05T11:47:51.966Z,24.20
2018-09-05T11:50:20.621Z,24.29
2018-09-05T11:52:49.723Z,24.35
2018-09-05T11:55:18.614Z,24.40
2018-09-05T11:57:47.347Z,24.44
2018-09-05T12:00:16.546Z,24.49
2018-09-05T12:02:45.221Z,24.61
2018-09-05T12:05:13.968Z,24.57
2018-09-05T12:07:43.603Z,24.52
2018-09-05T12:10:12.388Z,24.62
2018-09-05T12:12:41.367Z,24.73
2018-09-05T12:15:11.277Z,24.82
2018-09-05T12:17:40.608Z,24.93
2018-09-05T12:20:10.246Z,24.97
2018-09-05T12:22:38.997Z,25.09
2018-09-05T12:25:07.654Z,25.18
2018-09-05T12:27:37.695Z,25.25
2018-09-05T12:30:06.495Z,25.33
2018-09-05T12:32:35.188Z,25.40
2018-09-05T12:35:06.383Z,25.42
2018-09-05T12:37:35.148Z,25.43
2018-09-05T12:40:05.437Z,25.54
2018-09-05T12:42:34.816Z,25.61
2018-09-05T12:45:04.023Z,25.72
2018-09-05T12:47:32.695Z,25.74
2018-09-05T12:50:01.478Z,25.85
2018-09-05T12:52:31.859Z,25.90
2018-09-05T12:55:00.686Z,26.02
2018-09-05T12:57:30.324Z,26.02
2018-09-05T12:59:58.958Z,26.08
2018-09-05T13:02:27.600Z,26.16
2018-09-05T13:04:56.371Z,26.19
2018-09-05T13:07:24.973Z,26.33
2018-09-05T13:09:53.616Z,26.41
2018-09-05T13:12:23.435Z,26.41
2018-09-05T13:14:52.344Z,26.53
2018-09-05T13:17:20.979Z,26.60
2018-09-05T13:19:49.921Z,26.60
2018-09-05T13:22:18.607Z,26.61
2018-09-05T13:24:48.053Z,26.68
2018-09-05T13:27:16.810Z,26.81
2018-09-05T13:29:45.474Z,26.91
2018-09-05T13:32:14.079Z,26.99
2018-09-05T13:34:42.741Z,27.01
2018-09-05T13:37:12.368Z,27.10
2018-09-05T13:39:41.177Z,27.14
2018-09-05T13:42:09.885Z,27.20
2018-09-05T13:44:38.478Z,27.14
2018-09-05T13:47:07.190Z,27.22
2018-09-05T13:49:36.007Z,27.37
2018-09-05T13:52:06.593Z,27.42
2018-09-05T13:54:36.796Z,27.51
2018-09-05T13:57:06.333Z,27.62
2018-09-05T13:59:35.046Z,27.70
2018-09-05T14:02:04.928Z,27.77
2018-09-05T14:04:33.460Z,27.79
2018-09-05T14:07:02.863Z,27.75
2018-09-05T14:09:31.655Z,27.72
2018-09-05T14:12:00.412Z,27.59
2018-09-05T14:14:29.378Z,27.69
2018-09-05T14:16:58.320Z,27.83
2018-09-05T14:19:27.165Z,27.95
2018-09-05T14:21:56.105Z,27.93
2018-09-05T14:24:25.579Z,27.90
2018-09-05T14:26:54.476Z,27.75
2018-09-05T14:29:23.318Z,27.71
2018-09-05T14:31:52.553Z,27.84
2018-09-05T14:34:21.320Z,27.98
2018-09-05T14:36:50.211Z,28.14
2018-09-05T14:39:20.718Z,28.06
2018-09-05T14:41:50.788Z,28.15
2018-09-05T14:44:26.100Z,28.19
2018-09-05T14:46:55.094Z,28.31
2018-09-05T14:49:23.906Z,28.35
2018-09-05T14:51:52.927Z,28.09
2018-09-05T14:54:21.733Z,28.18
2018-09-05T14:56:51.180Z,28.26
2018-09-05T14:59:19.749Z,28.25
2018-09-05T15:01:48.499Z,28.12
2018-09-05T15:04:17.308Z,27.83
2018-09-05T15:06:46.092Z,27.67
2018-09-05T15:09:15.112Z,27.64
2018-09-05T15:11:45.827Z,27.62
2018-09-05T15:14:14.840Z,27.71
2018-09-05T15:16:43.809Z,27.72
2018-09-05T15:22:01.856Z,27.57
2018-09-05T15:24:31.674Z,27.54
2018-09-05T15:27:00.318Z,27.59
2018-09-05T15:29:29.903Z,27.68
2018-09-05T15:31:58.975Z,27.61
2018-09-05T15:34:29.014Z,27.60
2018-09-05T15:36:59.036Z,27.57
2018-09-05T15:39:27.768Z,27.52
2018-09-05T15:41:57.247Z,27.55
2018-09-05T15:44:27.064Z,27.53
2018-09-05T15:46:57.970Z,27.52
2018-09-05T15:49:26.604Z,27.53
2018-09-05T15:51:56.525Z,27.45
2018-09-05T15:54:27.558Z,27.25
2018-09-05T15:56:56.258Z,27.06
2018-09-05T15:59:24.979Z,26.96
2018-09-05T16:01:55.052Z,26.83
2018-09-05T16:04:25.000Z,26.77
2018-09-05T16:06:54.746Z,26.58
2018-09-05T16:09:23.817Z,26.56
2018-09-05T16:11:52.804Z,26.68
2018-09-05T16:17:30.330Z,26.27
2018-09-05T16:20:03.313Z,26.11
2018-09-05T16:22:35.045Z,25.92
2018-09-05T16:25:03.964Z,25.76
2018-09-05T16:27:38.377Z,25.70
2018-09-05T16:30:07.686Z,25.49
2018-09-05T16:32:39.555Z,25.35
2018-09-05T16:35:08.380Z,25.27
2018-09-05T16:37:36.967Z,25.19
2018-09-05T16:40:05.749Z,25.09
2018-09-05T16:42:34.448Z,25.01
2018-09-05T16:45:03.439Z,24.94
2018-09-05T16:47:32.141Z,24.85
2018-09-05T16:50:00.893Z,24.79
2018-09-05T16:52:30.713Z,24.73
2018-09-05T16:54:59.781Z,24.68
2018-09-05T16:57:29.841Z,24.58
2018-09-05T16:59:58.525Z,24.57
2018-09-05T17:02:27.222Z,24.52
2018-09-05T17:04:57.282Z,24.48
2018-09-05T17:07:25.980Z,24.43
2018-09-05T17:09:55.682Z,24.38
2018-09-05T17:12:24.700Z,24.30
2018-09-05T17:14:53.694Z,24.27
2018-09-05T17:17:23.885Z,24.23
2018-09-05T17:19:52.575Z,24.18
2018-09-05T17:22:22.276Z,24.14
2018-09-05T17:24:51.127Z,24.09
2018-09-05T17:27:20.736Z,24.01
2018-09-05T17:29:49.927Z,23.99
2018-09-05T17:32:18.631Z,23.93
2018-09-05T17:34:55.103Z,23.89
2018-09-05T17:37:24.193Z,23.83
2018-09-05T17:39:53.493Z,23.79
2018-09-05T17:42:23.100Z,23.76
2018-09-05T17:44:52.172Z,23.64
2018-09-05T17:47:22.551Z,23.61
2018-09-05T17:49:52.259Z,23.57
2018-09-05T17:52:20.993Z,23.52
2018-09-05T17:54:50.426Z,23.46
2018-09-05T17:57:21.215Z,23.43
2018-09-05T17:59:50.084Z,23.36
2018-09-05T18:02:18.733Z,23.31
2018-09-05T18:04:47.853Z,23.28
2018-09-05T18:07:18.147Z,23.22
2018-09-05T18:23:13.043Z,22.79
2018-09-05T18:25:42.624Z,22.74
2018-09-05T18:28:11.646Z,22.66
2018-09-05T18:30:41.618Z,22.61
2018-09-05T18:33:12.288Z,22.55
2018-09-05T18:35:41.380Z,22.52
2018-09-05T18:38:10.956Z,22.46
2018-09-05T18:40:40.610Z,22.39
2018-09-05T18:43:09.772Z,22.35
2018-09-05T18:45:39.005Z,22.31
2018-09-05T18:48:09.213Z,22.26
2018-09-05T18:50:39.839Z,22.19
2018-09-05T18:53:13.605Z,22.15
2018-09-05T18:55:44.600Z,22.10
2018-09-05T18:58:13.791Z,22.03
2018-09-05T19:00:42.931Z,21.99
2018-09-05T19:03:13.357Z,21.92
2018-09-05T19:05:42.157Z,21.87
2018-09-05T19:08:10.709Z,21.83
2018-09-05T19:10:40.203Z,21.79
2018-09-05T19:13:08.912Z,21.71
2018-09-05T19:15:38.493Z,21.69
2018-09-05T19:18:08.275Z,21.60
2018-09-05T19:20:37.211Z,21.55
2018-09-05T19:23:07.770Z,21.50
2018-09-05T19:25:37.324Z,21.45
2018-09-05T19:28:07.545Z,21.42
2018-09-05T19:30:37.029Z,21.41
2018-09-05T19:33:06.525Z,21.35
2018-09-05T19:35:37.117Z,21.33
2018-09-05T19:38:07.201Z,21.28
2018-09-05T19:40:36.208Z,21.25
2018-09-05T19:43:04.989Z,21.23
2018-09-05T19:45:33.606Z,21.20
2018-09-05T19:48:03.527Z,21.17
2018-09-05T19:50:32.269Z,21.13
2018-09-05T19:53:01.837Z,21.06
2018-09-05T19:55:30.980Z,21.01
2018-09-05T19:57:59.905Z,20.98
2018-09-05T20:00:29.960Z,20.93
2018-09-05T20:02:58.461Z,20.91
2018-09-05T20:05:28.694Z,20.87
2018-09-05T20:08:01.751Z,20.86
2018-09-05T20:10:30.490Z,20.83
2018-09-05T20:12:59.321Z,20.82
2018-09-05T20:15:28.094Z,20.80
2018-09-05T20:17:57.029Z,20.75
2018-09-05T20:20:25.986Z,20.73
2018-09-05T20:22:58.869Z,20.72
2018-09-05T20:25:36.873Z,20.72
2018-09-05T20:28:12.374Z,20.70
2018-09-05T20:30:40.988Z,20.67
2018-09-05T20:33:09.573Z,20.66
2018-09-05T20:35:38.105Z,20.62
2018-09-05T20:38:06.811Z,20.60
2018-09-05T20:40:36.419Z,20.59
2018-09-05T20:43:05.640Z,20.59
2018-09-05T20:45:34.388Z,20.58
2018-09-05T20:48:03.513Z,20.57
2018-09-05T20:50:32.630Z,20.56
2018-09-05T20:53:01.969Z,20.54
2018-09-05T20:55:30.656Z,20.51
2018-09-05T20:57:59.526Z,20.49
2018-09-05T21:00:29.381Z,20.48
2018-09-05T21:02:58.231Z,20.45
2018-09-05T21:05:27.692Z,20.43
2018-09-05T21:07:56.295Z,20.41
2018-09-05T21:10:25.602Z,20.36
2018-09-05T21:12:55.171Z,20.34
2018-09-05T21:15:23.947Z,20.27
2018-09-05T21:17:52.655Z,20.24
2018-09-05T21:20:21.914Z,20.20
2018-09-05T21:22:50.616Z,20.18
2018-09-05T21:25:19.406Z,20.14
2018-09-05T21:27:49.170Z,20.10
2018-09-05T21:30:18.341Z,20.08
2018-09-05T21:32:46.981Z,20.06
2018-09-05T21:35:15.667Z,20.02
2018-09-05T21:37:44.549Z,19.99
2018-09-05T21:40:14.067Z,19.98
2018-09-05T21:42:43.699Z,19.91
2018-09-05T21:45:12.537Z,19.91
2018-09-05T21:47:41.284Z,19.84
2018-09-05T21:50:09.941Z,19.81
2018-09-05T21:52:38.641Z,19.79
2018-09-05T21:55:09.269Z,19.76
2018-09-05T21:57:38.399Z,19.75
2018-09-05T22:00:09.055Z,19.71
2018-09-05T22:02:37.982Z,19.72
2018-09-05T22:05:06.877Z,19.69
2018-09-05T22:07:35.667Z,19.63
2018-09-05T22:10:04.309Z,19.59
2018-09-05T22:12:33.067Z,19.59
2018-09-05T22:15:02.558Z,19.56
2018-09-05T22:17:31.230Z,19.52
2018-09-05T22:20:00.116Z,19.50
2018-09-05T22:22:28.947Z,19.48
2018-09-05T22:24:58.226Z,19.46
2018-09-05T22:27:27.524Z,19.43
2018-09-05T22:29:57.647Z,19.41
2018-09-05T22:32:26.683Z,19.36
2018-09-05T22:34:55.410Z,19.33
2018-09-05T22:37:25.311Z,19.29
2018-09-05T22:39:54.473Z,19.28
2018-09-05T22:42:23.117Z,19.26
2018-09-05T22:45:02.980Z,19.24
2018-09-05T22:47:43.564Z,19.23
2018-09-05T22:51:25.328Z,19.16
2018-09-05T22:54:11.094Z,19.18
2018-09-05T22:59:04.277Z,19.13
2018-09-05T23:01:57.796Z,19.08
2018-09-05T23:04:44.214Z,19.05
2018-09-05T23:07:24.098Z,19.04
2018-09-05T23:10:03.892Z,19.03
2018-09-05T23:12:44.257Z,18.98
2018-09-05T23:16:26.704Z,18.97
2018-09-05T23:19:07.272Z,18.93
2018-09-05T23:21:37.214Z,18.88
2018-09-05T23:24:08.132Z,18.87
2018-09-05T23:26:37.665Z,18.82
2018-09-05T23:29:06.364Z,18.86
2018-09-05T23:31:35.192Z,18.76
2018-09-05T23:34:04.804Z,18.75
2018-09-05T23:36:33.408Z,18.73
2018-09-05T23:39:02.657Z,18.77
2018-09-05T23:41:31.701Z,18.76
2018-09-05T23:44:00.355Z,18.64
2018-09-05T23:46:29.361Z,18.65
2018-09-05T23:48:59.060Z,18.62
2018-09-05T23:51:28.038Z,18.67
2018-09-05T23:53:57.027Z,18.67
2018-09-05T23:56:26.847Z,18.68
2018-09-05T23:58:55.921Z,18.66
